Time;durP1;ratioP1;P1;durP2;ratioP2;P2;SDS_P1;SDS_P2;PMS_P1;PMS_P2;Temp;Humidity;BMP_temperature;BMP_pressure;BME280_temperature;BME280_humidity;BME280_pressure;Samples;Min_cycle;Max_cycle;Signal;HPM_P1;HPM_P2
2023/06/01 00:02:11;;;;;;;7.27;2.67;;;;;;;21.15;42.81;100783.13;6232303;23;20180;-73
2023/06/01 00:04:41;;;;;;;4.93;2.10;;;;;;;21.12;43.03;100778.13;6232882;23;20188;-73
2023/06/01 00:07:10;;;;;;;8.80;2.60;;;;;;;21.07;42.79;100775.25;6230661;23;20186;-74
2023/06/01 00:09:38;;;;;;;5.63;1.80;;;;;;;21.04;42.82;100775.66;6232576;23;20214;-74
2023/06/01 00:12:07;;;;;;;6.40;2.33;;;;;;;21.02;43.18;100775.84;6233260;23;20257;-74
2023/06/01 00:14:35;;;;;;;5.97;2.20;;;;;;;21.00;43.00;100782.50;6234757;23;20187;-73
2023/06/01 00:17:05;;;;;;;4.20;2.20;;;;;;;20.97;43.42;100781.06;6233276;23;20351;-73
2023/06/01 00:19:34;;;;;;;7.97;2.67;;;;;;;20.96;43.09;100774.00;6235660;23;20976;-74
2023/06/01 00:22:02;;;;;;;5.67;2.67;;;;;;;20.97;43.45;100774.84;6235168;23;20589;-72
2023/06/01 00:24:30;;;;;;;7.17;2.53;;;;;;;20.93;43.37;100777.09;6235842;23;20190;-74
2023/06/01 00:26:58;;;;;;;6.67;2.47;;;;;;;20.94;43.34;100767.97;6235488;23;20491;-73
2023/06/01 00:29:26;;;;;;;7.03;2.17;;;;;;;20.90;43.38;100769.44;6236149;23;20216;-73
2023/06/01 00:31:53;;;;;;;4.97;2.10;;;;;;;20.86;43.66;100776.28;6234903;23;20183;-73
2023/06/01 00:34:23;;;;;;;5.17;2.20;;;;;;;20.88;43.69;100771.53;6232771;23;20188;-74
2023/06/01 00:36:51;;;;;;;7.27;2.40;;;;;;;20.83;43.79;100768.63;6234283;23;20176;-74
2023/06/01 00:39:18;;;;;;;5.97;2.40;;;;;;;20.80;43.84;100773.59;6234648;23;20881;-74
2023/06/01 00:41:46;;;;;;;11.73;2.60;;;;;;;20.79;43.74;100774.63;6234081;23;20219;-74
2023/06/01 00:44:14;;;;;;;4.37;2.43;;;;;;;20.78;43.73;100776.50;6236277;23;20286;-73
2023/06/01 00:46:42;;;;;;;7.57;2.47;;;;;;;20.73;43.94;100768.22;6236842;23;20183;-73
2023/06/01 00:49:10;;;;;;;4.07;2.00;;;;;;;20.69;44.37;100766.97;6235740;23;20266;-74
2023/06/01 00:51:40;;;;;;;6.47;2.23;;;;;;;20.72;43.95;100771.94;6237018;23;20184;-74
2023/06/01 00:54:09;;;;;;;8.17;2.30;;;;;;;20.72;44.13;100765.72;6236099;23;20182;-74
2023/06/01 00:56:37;;;;;;;8.20;2.40;;;;;;;20.72;43.86;100760.34;6234050;23;20188;-73
2023/06/01 00:59:05;;;;;;;7.23;2.50;;;;;;;20.70;43.96;100757.00;6237019;23;20211;-74
2023/06/01 01:01:33;;;;;;;5.97;2.30;;;;;;;20.69;44.37;100763.44;6239407;23;20188;-72
2023/06/01 01:04:01;;;;;;;6.97;2.17;;;;;;;20.67;44.40;100769.03;6241318;23;20241;-73
2023/06/01 01:06:45;;;;;;;3.53;2.00;;;;;;;20.67;44.23;100762.84;6241616;23;20180;-75
2023/06/01 01:09:23;;;;;;;6.30;2.43;;;;;;;20.64;44.46;100764.06;6244596;23;20262;-74
2023/06/01 01:11:57;;;;;;;6.40;2.13;;;;;;;20.64;44.13;100770.28;6238679;23;20179;-73
2023/06/01 01:14:28;;;;;;;5.97;2.20;;;;;;;20.64;44.35;100764.06;6236524;23;20171;-73
2023/06/01 01:17:03;;;;;;;6.67;2.27;;;;;;;20.63;44.38;100768.63;6234389;23;20184;-73
2023/06/01 01:19:53;;;;;;;8.07;2.17;;;;;;;20.62;44.23;100764.28;6237048;23;20195;-74
2023/06/01 01:22:44;;;;;;;6.67;2.50;;;;;;;20.61;44.14;100765.31;6237164;23;20577;-74
2023/06/01 01:25:22;;;;;;;5.93;3.00;;;;;;;20.57;44.48;100766.75;6234931;23;20187;-74
2023/06/01 01:28:10;;;;;;;9.10;2.30;;;;;;;20.58;44.51;100765.69;6233813;23;20477;-76
2023/06/01 01:30:42;;;;;;;6.20;2.47;;;;;;;20.54;44.74;100764.47;6235016;23;20195;-73
2023/06/01 01:33:11;;;;;;;7.90;2.53;;;;;;;20.53;44.57;100768.19;6233586;23;20219;-74
2023/06/01 01:35:39;;;;;;;6.30;2.33;;;;;;;20.50;44.54;100763.22;6234115;23;20691;-74
2023/06/01 01:38:07;;;;;;;7.90;2.70;;;;;;;20.50;44.83;100768.59;6233830;23;20211;-74
2023/06/01 01:40:35;;;;;;;5.87;3.00;;;;;;;20.50;44.98;100763.22;6235588;23;20230;-73
2023/06/01 01:43:03;;;;;;;8.17;2.17;;;;;;;20.48;44.67;100764.47;6234158;23;20682;-74
2023/06/01 01:45:31;;;;;;;5.97;2.33;;;;;;;20.47;44.64;100757.44;6235576;23;20180;-73
2023/06/01 01:48:06;;;;;;;8.83;2.37;;;;;;;20.45;44.78;100754.09;6232887;23;20877;-73
2023/06/01 01:50:39;;;;;;;4.03;2.23;;;;;;;20.44;44.98;100760.50;6235434;23;20818;-74
2023/06/01 01:53:10;;;;;;;7.00;2.43;;;;;;;20.43;44.74;100762.38;6236192;23;20179;-75
2023/06/01 01:55:38;;;;;;;5.50;2.10;;;;;;;20.44;44.96;100766.75;6236710;23;20780;-72
2023/06/01 01:58:07;;;;;;;6.23;2.03;;;;;;;20.43;44.74;100759.69;6234890;23;20261;-73
2023/06/01 02:00:34;;;;;;;10.17;3.07;;;;;;;20.40;45.12;100756.59;6235691;23;20302;-74
2023/06/01 02:03:03;;;;;;;5.33;2.10;;;;;;;20.39;44.97;100754.94;6236448;23;20222;-71
2023/06/01 02:05:31;;;;;;;6.07;2.30;;;;;;;20.33;45.44;100753.84;6236362;23;20225;-73
2023/06/01 02:07:59;;;;;;;7.00;2.50;;;;;;;20.32;45.02;100754.06;6234880;23;20236;-74
2023/06/01 02:10:27;;;;;;;3.27;1.97;;;;;;;20.28;45.48;100753.63;6236292;23;20596;-73
2023/06/01 02:12:55;;;;;;;8.73;1.90;;;;;;;20.24;45.34;100755.06;6235396;23;20695;-73
2023/06/01 02:15:23;;;;;;;5.83;2.10;;;;;;;20.21;45.29;100758.19;6236377;23;20545;-74
2023/06/01 02:17:53;;;;;;;5.37;2.53;;;;;;;20.19;45.68;100752.16;6234742;23;20176;-73
2023/06/01 02:20:22;;;;;;;5.23;2.33;;;;;;;20.14;45.62;100750.06;6236785;23;20167;-72
2023/06/01 02:22:50;;;;;;;7.47;2.30;;;;;;;20.08;45.68;100741.97;6234639;23;20200;-74
2023/06/01 02:25:19;;;;;;;7.27;2.20;;;;;;;20.06;46.00;100744.03;6235504;23;20190;-75
2023/06/01 02:27:47;;;;;;;4.30;2.10;;;;;;;19.98;45.94;100746.91;6234069;23;20279;-73
2023/06/01 02:30:15;;;;;;;5.77;2.30;;;;;;;19.91;46.05;100747.75;6234678;23;20180;-73
2023/06/01 02:32:44;;;;;;;5.17;1.93;;;;;;;19.83;46.39;100739.84;6235283;23;20179;-74
2023/06/01 02:35:12;;;;;;;4.00;2.20;;;;;;;19.77;46.71;100751.44;6234467;23;20188;-74
2023/06/01 02:37:42;;;;;;;7.60;2.37;;;;;;;19.77;46.52;100759.50;6234086;23;20184;-73
2023/06/01 02:40:12;;;;;;;6.00;2.07;;;;;;;19.75;46.41;100752.66;6234093;23;20485;-73
2023/06/01 02:42:40;;;;;;;5.30;2.50;;;;;;;19.79;46.68;100745.84;6234501;23;20183;-75
2023/06/01 02:45:09;;;;;;;6.43;2.30;;;;;;;19.79;46.41;100743.16;6235319;23;20278;-74
2023/06/01 02:47:37;;;;;;;8.00;1.87;;;;;;;19.78;46.38;100744.19;6236508;23;20184;-73
2023/06/01 02:50:06;;;;;;;6.70;2.63;;;;;;;19.75;46.76;100748.09;6234158;23;20221;-73
2023/06/01 02:52:35;;;;;;;6.90;2.30;;;;;;;19.71;47.02;100752.22;6234651;23;20330;-74
2023/06/01 02:55:05;;;;;;;7.43;2.43;;;;;;;19.68;46.66;100746.41;6233965;23;20179;-74
2023/06/01 02:57:33;;;;;;;7.73;2.67;;;;;;;19.60;47.14;100749.28;6234276;23;20187;-75
2023/06/01 03:00:01;;;;;;;5.03;2.37;;;;;;;19.56;47.10;100748.84;6236081;23;20277;-75
2023/06/01 03:02:29;;;;;;;8.30;2.87;;;;;;;19.51;47.06;100751.31;6234592;23;20191;-73
2023/06/01 03:04:57;;;;;;;8.43;2.37;;;;;;;19.50;47.18;100749.66;6237111;23;20208;-74
2023/06/01 03:07:25;;;;;;;6.60;2.70;;;;;;;19.49;47.60;100758.75;6235818;23;20187;-74
2023/06/01 03:09:53;;;;;;;4.43;2.40;;;;;;;19.47;47.39;100750.00;6237090;23;20192;-74
2023/06/01 03:12:22;;;;;;;5.63;2.40;;;;;;;19.49;47.44;100754.19;6238449;23;20190;-74
2023/06/01 03:14:49;;;;;;;6.40;2.30;;;;;;;19.45;47.80;100758.25;6238020;23;20187;-73
2023/06/01 03:17:17;;;;;;;5.57;2.33;;;;;;;19.47;47.73;100760.75;6237276;23;20207;-72
2023/06/01 03:19:45;;;;;;;5.03;2.23;;;;;;;19.49;47.60;100753.34;6236356;23;20203;-75
2023/06/01 03:22:13;;;;;;;4.07;2.13;;;;;;;19.43;47.85;100748.75;6216828;23;20299;-73
2023/06/01 03:24:41;;;;;;;4.67;2.27;;;;;;;19.41;47.71;100761.56;6209426;23;20195;-73
2023/06/01 03:27:10;;;;;;;5.80;3.03;;;;;;;19.40;47.65;100751.84;6209282;23;20251;-73
2023/06/01 03:29:39;;;;;;;5.87;2.80;;;;;;;19.39;47.65;100752.84;6208131;23;20211;-75
2023/06/01 03:32:08;;;;;;;6.43;3.00;;;;;;;19.39;47.62;100758.22;6204589;23;20214;-74
2023/06/01 03:34:37;;;;;;;4.53;2.50;;;;;;;19.33;48.08;100759.88;6204727;23;20191;-74
2023/06/01 03:37:05;;;;;;;4.97;2.30;;;;;;;19.31;48.03;100761.09;6203668;23;20291;-73
2023/06/01 03:39:34;;;;;;;6.27;2.80;;;;;;;19.30;48.06;100754.03;6205096;23;20200;-74
2023/06/01 03:42:02;;;;;;;5.60;2.37;;;;;;;19.25;48.18;100761.88;6204754;23;20207;-73
2023/06/01 03:44:31;;;;;;;9.00;2.60;;;;;;;19.21;48.29;100763.28;6204561;23;20223;-74
2023/06/01 03:47:00;;;;;;;6.90;2.13;;;;;;;19.17;48.33;100758.31;6203852;23;20234;-76
2023/06/01 03:49:28;;;;;;;5.77;2.37;;;;;;;19.11;48.50;100759.09;6204749;23;20212;-74
2023/06/01 03:51:55;;;;;;;5.73;2.03;;;;;;;19.07;48.87;100765.91;6205889;23;20180;-74
2023/06/01 03:54:23;;;;;;;6.47;2.33;;;;;;;19.10;48.86;100770.03;6204011;23;20196;-73
2023/06/01 03:56:51;;;;;;;4.53;2.20;;;;;;;19.09;48.74;100760.31;6204632;23;20180;-75
2023/06/01 03:59:19;;;;;;;6.67;2.33;;;;;;;19.06;48.62;100764.25;6205348;23;20204;-73
2023/06/01 04:01:48;;;;;;;8.00;2.73;;;;;;;19.09;48.82;100763.84;6205284;23;20184;-74
2023/06/01 04:04:18;;;;;;;7.50;2.27;;;;;;;19.13;48.69;100764.28;6204851;23;20184;-73
2023/06/01 04:06:46;;;;;;;8.27;3.10;;;;;;;19.09;48.67;100769.22;6205667;23;20171;-74
2023/06/01 04:09:15;;;;;;;9.90;2.87;;;;;;;19.04;49.23;100763.59;6205454;23;20267;-74
2023/06/01 04:11:43;;;;;;;6.63;2.40;;;;;;;19.04;49.01;100766.28;6205005;23;20184;-74
2023/06/01 04:14:11;;;;;;;4.80;2.43;;;;;;;19.04;48.98;100770.84;6206076;23;20291;-73
2023/06/01 04:16:39;;;;;;;10.20;2.43;;;;;;;19.10;48.74;100770.03;6206924;23;20188;-74
2023/06/01 04:19:07;;;;;;;8.43;2.70;;;;;;;19.12;48.67;100771.50;6210123;23;20204;-73
2023/06/01 04:21:36;;;;;;;4.67;2.90;;;;;;;19.10;49.22;100765.50;6212301;23;20212;-74
2023/06/01 04:24:04;;;;;;;7.50;2.97;;;;;;;19.07;48.98;100768.59;6211953;23;20211;-74
2023/06/01 04:26:32;;;;;;;15.30;2.83;;;;;;;19.10;48.91;100772.72;6208866;23;20184;-74
2023/06/01 04:29:02;;;;;;;9.83;2.73;;;;;;;19.14;48.73;100774.84;6210203;23;20842;-75
2023/06/01 04:31:32;;;;;;;6.77;2.23;;;;;;;19.15;48.77;100773.81;6211377;23;20207;-74
2023/06/01 04:34:01;;;;;;;6.43;2.40;;;;;;;19.14;48.87;100782.91;6206964;23;20207;-75
2023/06/01 04:36:29;;;;;;;5.47;2.40;;;;;;;19.12;49.63;100784.94;6207610;23;20181;-65
2023/06/01 04:38:58;;;;;;;7.50;2.50;;;;;;;19.15;49.67;100781.88;6206751;23;20242;-66
2023/06/01 04:41:26;;;;;;;5.63;2.43;;;;;;;19.21;49.30;100790.19;6207876;23;20176;-65
2023/06/01 04:43:54;;;;;;;6.43;2.60;;;;;;;19.28;48.91;100791.03;6207558;23;20250;-65
2023/06/01 04:46:24;;;;;;;5.73;2.70;;;;;;;19.32;49.11;100795.00;6206228;23;20184;-66
2023/06/01 04:48:55;;;;;;;9.07;2.63;;;;;;;19.37;48.76;100793.38;6208360;23;20191;-66
2023/06/01 04:51:23;;;;;;;7.77;2.67;;;;;;;19.42;48.89;100784.75;6208161;23;20188;-66
2023/06/01 04:53:53;;;;;;;9.47;2.57;;;;;;;19.43;49.01;100791.78;6207096;23;20291;-64
2023/06/01 04:56:24;;;;;;;5.13;2.60;;;;;;;19.43;49.19;100791.78;6207447;23;20188;-65
2023/06/01 04:58:52;;;;;;;6.57;2.53;;;;;;;19.45;49.38;100792.41;6207397;23;20172;-66
2023/06/01 05:01:24;;;;;;;6.80;3.03;;;;;;;19.47;49.48;100799.28;6207023;23;20606;-65
2023/06/01 05:03:55;;;;;;;7.40;2.80;;;;;;;19.49;49.34;100785.63;6207945;23;20180;-65
2023/06/01 05:06:26;;;;;;;8.10;3.80;;;;;;;19.47;49.74;100787.66;6205719;23;20915;-65
2023/06/01 05:08:54;;;;;;;10.03;3.40;;;;;;;19.49;50.10;100799.09;6206659;23;20184;-66
2023/06/01 05:11:23;;;;;;;10.37;3.50;;;;;;;19.52;49.43;100787.94;6206942;23;20188;-65
2023/06/01 05:13:52;;;;;;;7.97;2.50;;;;;;;19.52;50.02;100790.63;6207253;23;20184;-65
2023/06/01 05:16:20;;;;;;;6.97;2.90;;;;;;;19.54;50.03;100789.38;6207443;23;20219;-65
2023/06/01 05:18:49;;;;;;;8.23;2.60;;;;;;;19.58;49.78;100797.06;6208671;23;20180;-66
2023/06/01 05:21:16;;;;;;;7.60;2.60;;;;;;;19.56;49.80;100791.88;6206388;22;20211;-66
2023/06/01 05:23:44;;;;;;;11.23;3.00;;;;;;;19.56;49.67;100789.19;6208020;23;20184;-67
2023/06/01 05:26:12;;;;;;;7.97;3.03;;;;;;;19.61;49.88;100789.44;6206621;23;20188;-67
2023/06/01 05:28:41;;;;;;;5.70;2.53;;;;;;;19.67;49.46;100785.09;6206350;23;20696;-67
2023/06/01 05:31:09;;;;;;;5.87;2.67;;;;;;;19.67;49.89;100788.63;6207454;23;20184;-67
2023/06/01 05:33:37;;;;;;;6.90;2.80;;;;;;;19.71;49.53;100792.56;6206609;23;20475;-67
2023/06/01 05:36:06;;;;;;;8.40;2.63;;;;;;;19.71;49.81;100797.94;6205305;23;20188;-66
2023/06/01 05:38:34;;;;;;;8.57;2.70;;;;;;;19.75;49.43;100791.16;6205743;23;20259;-66
2023/06/01 05:41:02;;;;;;;7.77;3.00;;;;;;;19.80;49.67;100788.66;6204148;23;21050;-68
2023/06/01 05:43:30;;;;;;;12.43;2.67;;;;;;;19.83;49.64;100787.44;6206208;23;20187;-66
2023/06/01 05:46:02;;;;;;;4.90;2.20;;;;;;;19.84;49.91;100787.25;6205977;23;20719;-66
2023/06/01 05:48:30;;;;;;;7.30;2.63;;;;;;;19.90;49.81;100791.81;6205659;23;20184;-65
2023/06/01 05:50:58;;;;;;;13.13;2.70;;;;;;;19.97;49.43;100788.31;6205839;23;20274;-65
2023/06/01 05:53:27;;;;;;;5.23;2.50;;;;;;;20.00;49.09;100785.22;6205900;23;20562;-65
2023/06/01 05:55:55;;;;;;;11.27;3.07;;;;;;;20.03;49.06;100787.53;6204563;23;20636;-66
2023/06/01 05:58:23;;;;;;;7.07;2.60;;;;;;;20.03;49.21;100780.28;6204630;23;20263;-65
2023/06/01 06:00:51;;;;;;;9.70;2.90;;;;;;;20.10;49.12;100789.22;6205816;23;20231;-66
2023/06/01 06:03:21;;;;;;;6.60;2.37;;;;;;;20.14;49.15;100790.44;6207070;23;20210;-67
2023/06/01 06:05:49;;;;;;;7.70;2.60;;;;;;;20.19;49.09;100789.84;6204600;23;20243;-65
2023/06/01 06:08:17;;;;;;;7.80;2.73;;;;;;;20.22;49.06;100789.47;6204438;23;20263;-66
2023/06/01 06:10:44;;;;;;;6.90;2.20;;;;;;;20.26;48.76;100790.69;6204382;23;20649;-65
2023/06/01 06:13:13;;;;;;;8.00;2.53;;;;;;;20.33;48.45;100788.00;6205485;23;20679;-66
2023/06/01 06:15:40;;;;;;;7.53;2.53;;;;;;;20.34;48.64;100784.28;6206439;23;20231;-65
2023/06/01 06:18:08;;;;;;;6.83;2.43;;;;;;;20.39;48.62;100792.63;6205477;23;20207;-65
2023/06/01 06:20:37;;;;;;;9.27;2.83;;;;;;;20.42;49.08;100790.34;6205527;23;20619;-66
2023/06/01 06:23:05;;;;;;;7.60;3.23;;;;;;;20.44;48.74;100790.97;6204534;23;20184;-65
2023/06/01 06:25:33;;;;;;;13.43;3.30;;;;;;;20.49;47.89;100788.50;6206688;23;20184;-66
2023/06/01 06:28:01;;;;;;;5.67;2.73;;;;;;;20.54;48.17;100791.41;6205913;23;20354;-66
2023/06/01 06:30:29;;;;;;;4.60;2.37;;;;;;;20.60;48.03;100790.56;6206135;23;20808;-66
2023/06/01 06:32:57;;;;;;;9.20;2.90;;;;;;;20.62;48.57;100793.06;6206391;23;20179;-65
2023/06/01 06:35:25;;;;;;;10.13;3.27;;;;;;;20.65;47.95;100784.59;6201628;23;20725;-65
2023/06/01 06:37:54;;;;;;;9.47;3.00;;;;;;;20.67;50.88;100784.38;6200353;23;20246;-66
2023/06/01 06:40:22;;;;;;;9.40;2.30;;;;;;;20.72;50.07;100784.59;6202050;23;20469;-66
2023/06/01 06:42:51;;;;;;;9.53;2.87;;;;;;;20.85;48.90;100789.97;6197809;23;20184;-66
2023/06/01 06:45:18;;;;;;;11.63;2.73;;;;;;;20.89;48.41;100791.22;6199286;23;20211;-66
2023/06/01 06:47:46;;;;;;;7.33;2.83;;;;;;;20.91;48.14;100792.69;6201880;23;20188;-66
2023/06/01 06:50:14;;;;;;;8.70;2.67;;;;;;;20.92;47.91;100786.25;6203174;23;20184;-67
2023/06/01 06:52:42;;;;;;;8.30;2.63;;;;;;;20.95;47.62;100793.06;6203264;23;20247;-65
2023/06/01 06:55:11;;;;;;;6.90;3.10;;;;;;;20.96;47.64;100789.34;6202661;23;20640;-67
2023/06/01 06:57:40;;;;;;;7.57;2.47;;;;;;;20.96;47.99;100783.97;6201587;23;20802;-67
2023/06/01 07:00:14;;;;;;;4.17;1.90;;;;;;;21.00;47.86;100793.31;6204518;23;20242;-67
2023/06/01 07:02:44;;;;;;;5.77;2.10;;;;;;;21.04;47.65;100791.81;6204712;23;20752;-66
2023/06/01 07:05:12;;;;;;;6.43;2.80;;;;;;;21.08;47.47;100798.47;6205372;23;20184;-66
2023/06/01 07:07:41;;;;;;;6.70;2.37;;;;;;;21.13;47.64;100795.13;6205714;23;20250;-67
2023/06/01 07:10:11;;;;;;;10.17;2.33;;;;;;;21.17;47.33;100796.38;6202642;23;20703;-65
2023/06/01 07:12:39;;;;;;;6.80;2.50;;;;;;;21.19;47.41;100795.19;6204441;23;20775;-65
2023/06/01 07:15:08;;;;;;;8.37;2.60;;;;;;;21.23;47.70;100796.41;6202133;23;20267;-66
2023/06/01 07:17:36;;;;;;;7.13;2.67;;;;;;;21.30;47.74;100791.81;6204382;23;20184;-66
2023/06/01 07:20:06;;;;;;;7.37;2.50;;;;;;;21.32;47.52;100784.34;6204139;23;20291;-65
2023/06/01 07:22:34;;;;;;;9.60;2.70;;;;;;;21.40;47.37;100797.63;6203271;22;20208;-67
2023/06/01 07:25:02;;;;;;;6.93;2.53;;;;;;;21.47;47.46;100791.38;6202840;23;20219;-67
2023/06/01 07:27:32;;;;;;;10.53;2.80;;;;;;;21.57;47.56;100795.28;6202939;23;20235;-65
2023/06/01 07:30:00;;;;;;;5.77;2.50;;;;;;;21.62;47.44;100795.50;6204772;23;20555;-66
2023/06/01 07:32:28;;;;;;;6.27;2.70;;;;;;;21.71;46.89;100793.41;6204614;23;20258;-65
2023/06/01 07:34:57;;;;;;;7.23;2.90;;;;;;;21.77;47.43;100798.75;6204339;23;20258;-65
2023/06/01 07:37:26;;;;;;;7.80;2.27;;;;;;;21.83;47.70;100790.84;6203552;23;20258;-63
2023/06/01 07:39:54;;;;;;;9.10;2.63;;;;;;;21.88;47.56;100791.88;6204086;23;20267;-66
2023/06/01 07:42:22;;;;;;;7.33;2.73;;;;;;;21.93;48.03;100794.75;6203847;23;20199;-65
2023/06/01 07:44:51;;;;;;;8.63;2.40;;;;;;;22.02;47.68;100784.56;6204530;23;20898;-65
2023/06/01 07:47:20;;;;;;;7.87;2.37;;;;;;;22.09;48.04;100786.19;6203545;23;20215;-64
2023/06/01 07:49:47;;;;;;;6.63;2.60;;;;;;;22.16;47.52;100790.75;6204874;23;20628;-65
2023/06/01 07:52:15;;;;;;;12.03;3.10;;;;;;;22.23;47.38;100791.53;6206720;23;20191;-65
2023/06/01 07:54:43;;;;;;;5.70;3.00;;;;;;;22.27;47.20;100781.94;6206790;23;20222;-65
2023/06/01 07:57:11;;;;;;;7.50;3.40;;;;;;;22.36;46.87;100786.03;6205709;23;20545;-65
2023/06/01 07:59:39;;;;;;;6.37;2.83;;;;;;;22.42;47.06;100786.00;6207653;23;20180;-70
2023/06/01 08:02:10;;;;;;;11.13;3.07;;;;;;;22.50;46.75;100785.75;6206255;23;20294;-65
2023/06/01 08:04:39;;;;;;;5.23;2.63;;;;;;;22.59;46.92;100790.88;6206028;23;20977;-65
2023/06/01 08:07:08;;;;;;;10.80;2.70;;;;;;;22.66;47.04;100791.66;6205147;23;20263;-64
2023/06/01 08:09:37;;;;;;;9.37;2.40;;;;;;;22.73;46.28;100779.75;6204929;23;20549;-64
2023/06/01 08:12:06;;;;;;;8.50;2.43;;;;;;;22.79;46.46;100789.69;6205822;23;20184;-65
2023/06/01 08:14:36;;;;;;;12.30;3.03;;;;;;;22.85;45.93;100779.88;6205442;23;20180;-66
2023/06/01 08:17:06;;;;;;;6.45;2.67;;;;;;;22.95;45.93;100777.53;6203790;23;20218;-65
2023/06/01 08:19:36;;;;;;;7.30;2.60;;;;;;;23.03;45.88;100771.00;6204782;23;20212;-66
2023/06/01 08:22:05;;;;;;;8.80;3.17;;;;;;;23.12;45.98;100775.06;6204421;23;20263;-64
2023/06/01 08:24:35;;;;;;;7.40;2.53;;;;;;;23.17;45.72;100770.63;6205873;23;20215;-65
2023/06/01 08:27:17;;;;;;;8.57;2.67;;;;;;;23.25;45.63;100767.63;6203874;23;20204;-65
2023/06/01 08:29:46;;;;;;;5.57;2.35;;;;;;;23.34;45.19;100764.63;6205219;23;20570;-65
2023/06/01 08:32:15;;;;;;;6.95;2.55;;;;;;;23.43;45.31;100766.81;6203020;23;20267;-63
2023/06/01 08:34:45;;;;;;;6.45;2.70;;;;;;;23.51;45.19;100763.84;6203677;23;20181;-66
2023/06/01 08:37:13;;;;;;;8.55;2.58;;;;;;;23.57;44.43;100760.22;6204442;23;20184;-66
2023/06/01 08:39:41;;;;;;;7.90;2.83;;;;;;;23.65;43.87;100758.28;6203265;23;20911;-65
2023/06/01 08:42:14;;;;;;;8.43;3.35;;;;;;;23.77;43.27;100756.47;6206060;23;20255;-65
2023/06/01 08:44:42;;;;;;;7.57;3.20;;;;;;;23.87;43.59;100762.16;6204482;23;20188;-65
2023/06/01 08:47:10;;;;;;;7.10;2.50;;;;;;;23.94;44.11;100754.78;6205624;23;20604;-66
2023/06/01 08:49:42;;;;;;;7.60;2.72;;;;;;;24.01;43.72;100759.03;6206902;23;20188;-65
2023/06/01 08:52:13;;;;;;;8.07;2.65;;;;;;;24.05;43.19;100751.28;6204689;23;20237;-65
2023/06/01 08:54:41;;;;;;;7.00;2.85;;;;;;;24.15;43.24;100754.28;6205308;23;20187;-65
2023/06/01 08:57:09;;;;;;;9.48;2.65;;;;;;;24.23;43.32;100753.16;6203736;23;20184;-65
2023/06/01 08:59:39;;;;;;;15.93;2.60;;;;;;;24.30;42.77;100756.59;6204870;23;20184;-65
2023/06/01 09:02:07;;;;;;;5.78;1.92;;;;;;;24.33;41.86;100748.84;6205445;23;20208;-65
2023/06/01 09:04:37;;;;;;;6.57;2.47;;;;;;;24.40;40.54;100751.44;6204935;23;20191;-64
2023/06/01 09:07:05;;;;;;;7.90;2.70;;;;;;;24.45;40.63;100748.84;6205258;23;20262;-64
2023/06/01 09:09:34;;;;;;;12.57;3.28;;;;;;;24.53;40.54;100745.00;6204495;23;20180;-65
2023/06/01 09:12:28;;;;;;;7.15;2.20;;;;;;;24.56;40.09;100741.81;6206085;23;20267;-65
2023/06/01 09:15:10;;;;;;;8.43;2.70;;;;;;;24.70;40.63;100752.22;6204674;23;20640;-65
2023/06/01 09:17:39;;;;;;;8.85;2.55;;;;;;;24.74;40.83;100737.13;6205539;23;20247;-64
2023/06/01 09:20:12;;;;;;;4.45;2.05;;;;;;;24.81;40.77;100742.41;6206456;23;20186;-65
2023/06/01 09:22:42;;;;;;;5.55;2.60;;;;;;;24.94;40.72;100734.09;6206289;23;20290;-64
2023/06/01 09:25:13;;;;;;;9.10;2.63;;;;;;;25.04;40.74;100739.75;6207066;23;20204;-64
2023/06/01 09:27:46;;;;;;;15.65;2.88;;;;;;;25.13;40.75;100733.97;6203515;23;20234;-64
2023/06/01 09:30:17;;;;;;;7.18;3.10;;;;;;;25.20;40.44;100724.63;6205799;23;20238;-64
2023/06/01 09:32:50;;;;;;;8.68;2.83;;;;;;;25.24;40.33;100730.44;6204587;23;20215;-64
2023/06/01 09:35:38;;;;;;;5.97;2.25;;;;;;;25.36;39.97;100726.63;6201646;23;20227;-64
2023/06/01 09:38:06;;;;;;;10.02;2.40;;;;;;;25.46;39.76;100734.16;6202735;23;20258;-64
2023/06/01 09:40:35;;;;;;;5.93;2.42;;;;;;;25.55;39.21;100734.59;6202766;23;20247;-63
2023/06/01 09:43:04;;;;;;;8.00;2.10;;;;;;;25.60;39.10;100727.41;6202833;23;20210;-67
2023/06/01 09:45:32;;;;;;;6.95;2.05;;;;;;;25.64;38.97;100725.88;6203663;23;20183;-64
2023/06/01 09:48:19;;;;;;;4.70;2.47;;;;;;;25.71;38.59;100721.13;6201439;23;20777;-64
2023/06/01 09:50:47;;;;;;;12.68;2.80;;;;;;;25.77;38.90;100725.56;6202753;23;20246;-64
2023/06/01 09:53:15;;;;;;;5.63;2.33;;;;;;;25.85;39.03;100727.09;6201319;23;20210;-64
2023/06/01 09:56:01;;;;;;;10.32;2.58;;;;;;;25.90;38.09;100723.66;6202402;23;20234;-64
2023/06/01 09:58:31;;;;;;;9.27;2.33;;;;;;;25.97;38.22;100719.72;6204394;23;20658;-64
2023/06/01 10:01:00;;;;;;;10.73;2.40;;;;;;;26.02;38.52;100710.84;6204522;23;20186;-65
2023/06/01 10:03:29;;;;;;;5.88;2.05;;;;;;;26.11;37.68;100715.66;6199929;23;20216;-64
2023/06/01 10:05:59;;;;;;;10.48;2.63;;;;;;;26.19;37.14;100717.13;6202447;23;20809;-64
2023/06/01 10:08:29;;;;;;;5.15;2.17;;;;;;;26.23;37.41;100704.69;6203079;23;20215;-64
2023/06/01 10:10:56;;;;;;;5.63;1.95;;;;;;;26.29;37.20;100711.91;6201474;23;20215;-65
2023/06/01 10:13:26;;;;;;;9.80;2.47;;;;;;;26.34;36.58;100714.72;6205158;23;20246;-65
2023/06/01 10:15:58;;;;;;;6.85;2.33;;;;;;;26.39;36.01;100709.34;6202415;23;20188;-65
2023/06/01 10:18:26;;;;;;;6.38;1.90;;;;;;;26.45;35.37;100702.94;6202758;23;20295;-65
2023/06/01 10:20:56;;;;;;;5.82;2.58;;;;;;;26.53;35.50;100707.13;6207244;23;20181;-66
2023/06/01 10:23:25;;;;;;;4.78;1.83;;;;;;;26.58;35.18;100704.50;6233645;23;20191;-65
2023/06/01 10:26:00;;;;;;;7.13;2.60;;;;;;;26.65;36.00;100698.91;6234445;23;20167;-65
2023/06/01 10:28:31;;;;;;;4.50;1.88;;;;;;;26.63;35.09;100698.31;6233650;23;20209;-66
2023/06/01 10:31:34;;;;;;;7.03;2.33;;;;;;;26.78;35.06;100684.94;6233769;23;20180;-65
2023/06/01 10:34:02;;;;;;;8.48;2.40;;;;;;;26.82;35.56;100680.66;6235163;23;20187;-65
2023/06/01 10:37:07;;;;;;;7.78;2.25;;;;;;;26.91;35.81;100677.28;6233308;23;20515;-64
2023/06/01 10:39:36;;;;;;;10.95;2.28;;;;;;;26.92;34.34;100678.91;6234475;23;20221;-64
2023/06/01 10:42:38;;;;;;;6.25;2.20;;;;;;;27.01;34.84;100689.38;6234276;23;20184;-65
2023/06/01 10:45:09;;;;;;;6.05;2.00;;;;;;;27.09;35.02;100683.53;6205672;23;20289;-65
2023/06/01 10:47:50;;;;;;;7.68;2.33;;;;;;;27.20;33.97;100680.66;6233212;23;20266;-65
2023/06/01 10:50:19;;;;;;;6.38;1.90;;;;;;;27.22;34.17;100678.53;6235063;23;20230;-65
2023/06/01 10:52:47;;;;;;;10.45;1.92;;;;;;;27.31;33.60;100685.16;6234992;23;20466;-66
2023/06/01 10:55:27;;;;;;;9.65;1.92;;;;;;;27.45;32.95;100671.16;6234396;23;20824;-65
2023/06/01 10:58:20;;;;;;;6.75;2.00;;;;;;;27.45;33.72;100671.16;6233917;23;20191;-65
2023/06/01 11:00:50;;;;;;;6.95;2.50;;;;;;;27.46;33.31;100668.19;6233125;23;20230;-65
2023/06/01 11:03:45;;;;;;;3.88;2.25;;;;;;;27.51;33.01;100672.88;6234599;23;20238;-64
2023/06/01 11:06:31;;;;;;;5.75;2.42;;;;;;;27.59;32.90;100672.47;6233554;23;20233;-65
2023/06/01 11:09:00;;;;;;;7.07;2.20;;;;;;;27.66;33.21;100664.91;6235716;23;20910;-64
2023/06/01 11:12:02;;;;;;;5.40;2.08;;;;;;;27.68;32.86;100660.03;6236640;23;20840;-65
2023/06/01 11:14:33;;;;;;;5.65;2.08;;;;;;;27.66;32.44;100657.56;6083579;23;20201;-64
2023/06/01 11:17:29;;;;;;;4.55;2.10;;;;;;;27.76;32.97;100661.47;6082940;23;20668;-65
2023/06/01 11:20:00;;;;;;;5.28;2.03;;;;;;;27.83;33.09;100657.47;6182945;23;20179;-65
2023/06/01 11:22:36;;;;;;;6.25;2.22;;;;;;;27.92;32.72;100655.91;6235456;23;21114;-66
2023/06/01 11:25:07;;;;;;;5.88;2.45;;;;;;;27.91;32.86;100650.72;6233641;23;20167;-67
2023/06/01 11:27:36;;;;;;;7.03;2.40;;;;;;;27.90;31.83;100655.34;6234089;23;20235;-65
2023/06/01 11:30:06;;;;;;;6.68;2.25;;;;;;;27.93;32.75;100652.13;6236749;23;20183;-68
2023/06/01 11:32:41;;;;;;;6.53;2.08;;;;;;;27.92;33.19;100634.09;6235576;23;20233;-65
2023/06/01 11:35:20;;;;;;;5.97;1.92;;;;;;;28.03;33.11;100637.75;6235921;23;20221;-65
2023/06/01 11:37:54;;;;;;;7.40;2.17;;;;;;;28.02;32.38;100638.84;6236209;23;20167;-64
2023/06/01 11:40:22;;;;;;;9.85;2.53;;;;;;;27.99;32.12;100636.63;6234722;23;20184;-64